createdAt,value
2019-04-11T00:00:50.723Z,4.53
2019-04-11T00:03:19.475Z,4.30
2019-04-11T00:05:47.371Z,4.57
2019-04-11T00:08:15.158Z,4.80
2019-04-11T00:10:42.863Z,4.73
2019-04-11T00:13:18.881Z,5.47
2019-04-11T00:15:40.431Z,4.73
2019-04-11T00:18:08.348Z,4.73
2019-04-11T00:20:36.184Z,5.07
2019-04-11T00:23:03.896Z,4.70
2019-04-11T00:25:31.748Z,5.00
2019-04-11T00:27:59.509Z,5.63
2019-04-11T00:30:28.205Z,4.83
2019-04-11T00:32:56.147Z,5.07
2019-04-11T00:35:23.888Z,5.37
2019-04-11T00:37:51.631Z,5.50
2019-04-11T00:40:19.983Z,6.00
2019-04-11T00:42:47.760Z,5.90
2019-04-11T00:45:15.845Z,5.80
2019-04-11T00:47:44.886Z,5.93
2019-04-11T00:50:12.792Z,6.33
2019-04-11T00:52:41.284Z,6.07
2019-04-11T00:55:09.120Z,5.60
2019-04-11T00:57:37.087Z,5.97
2019-04-11T01:00:05.527Z,5.40
2019-04-11T01:02:33.648Z,5.90
2019-04-11T01:05:01.494Z,5.83
2019-04-11T01:07:29.210Z,5.77
2019-04-11T01:09:56.953Z,6.30
2019-04-11T01:12:24.864Z,6.40
2019-04-11T01:14:53.144Z,7.57
2019-04-11T01:17:21.225Z,6.30
2019-04-11T01:19:49.123Z,6.60
2019-04-11T01:22:16.832Z,7.30
2019-04-11T01:24:44.586Z,7.23
2019-04-11T01:27:12.314Z,7.40
2019-04-11T01:29:40.061Z,8.30
2019-04-11T01:32:09.152Z,7.43
2019-04-11T01:34:37.123Z,7.27
2019-04-11T01:37:05.034Z,8.37
2019-04-11T01:39:49.954Z,7.97
2019-04-11T01:42:17.770Z,9.33
2019-04-11T01:44:46.000Z,8.40
2019-04-11T01:47:22.486Z,8.67
2019-04-11T01:49:50.402Z,8.43
2019-04-11T01:52:18.249Z,9.97
2019-04-11T01:55:05.387Z,10.27
2019-04-11T01:57:33.933Z,11.03
2019-04-11T02:00:02.010Z,10.20
2019-04-11T02:02:38.923Z,11.60
2019-04-11T02:05:12.902Z,10.77
2019-04-11T02:07:40.653Z,11.47
2019-04-11T02:10:08.522Z,11.53
2019-04-11T02:12:37.353Z,12.37
2019-04-11T02:15:06.120Z,13.47
2019-04-11T02:17:34.873Z,13.40
2019-04-11T02:20:02.847Z,12.27
2019-04-11T02:22:52.907Z,13.30
2019-04-11T02:25:46.970Z,12.93
2019-04-11T02:28:16.892Z,12.80
2019-04-11T02:30:48.374Z,14.37
2019-04-11T02:33:18.194Z,14.00
2019-04-11T02:35:47.117Z,14.60
2019-04-11T02:38:16.533Z,14.27
2019-04-11T02:40:45.349Z,13.50
2019-04-11T02:43:15.392Z,13.47
2019-04-11T02:45:56.929Z,15.20
2019-04-11T02:48:13.781Z,15.73
2019-04-11T02:50:43.346Z,14.93
2019-04-11T02:53:12.409Z,15.90
2019-04-11T02:55:41.705Z,15.93
2019-04-11T02:58:10.422Z,15.40
2019-04-11T03:00:40.208Z,15.90
2019-04-11T03:03:10.093Z,18.13
2019-04-11T03:05:39.401Z,15.93
2019-04-11T03:08:11.438Z,17.63
2019-04-11T03:10:37.782Z,16.77
2019-04-11T03:13:05.578Z,17.60
2019-04-11T03:15:48.866Z,16.73
2019-04-11T03:18:08.312Z,17.87
2019-04-11T03:20:40.830Z,18.33
2019-04-11T03:23:06.220Z,20.47
2019-04-11T03:25:33.032Z,19.77
2019-04-11T03:28:01.640Z,19.03
2019-04-11T03:30:51.822Z,20.53
2019-04-11T03:36:22.044Z,21.53
2019-04-11T03:38:18.387Z,20.53
2019-04-11T03:40:46.801Z,20.83
2019-04-11T03:43:08.919Z,21.27
2019-04-11T03:45:48.071Z,21.07
2019-04-11T03:48:10.589Z,20.87
2019-04-11T03:50:29.905Z,21.63
2019-04-11T03:52:56.296Z,22.93
2019-04-11T03:55:26.019Z,22.80
2019-04-11T03:57:56.786Z,22.20
2019-04-11T04:00:28.349Z,23.23
2019-04-11T04:02:55.386Z,23.57
2019-04-11T04:05:23.824Z,23.43
2019-04-11T04:07:52.490Z,23.63
2019-04-11T04:10:23.426Z,24.17
2019-04-11T04:12:51.857Z,23.53
2019-04-11T04:15:55.772Z,23.93
2019-04-11T04:18:32.131Z,25.00
2019-04-11T04:21:19.972Z,24.93
2019-04-11T04:23:49.828Z,25.13
2019-04-11T04:26:19.304Z,25.77
2019-04-11T04:28:48.075Z,26.33
2019-04-11T04:31:16.325Z,25.87
2019-04-11T04:33:45.475Z,26.93
2019-04-11T04:36:15.363Z,26.70
2019-04-11T04:38:44.559Z,28.37
2019-04-11T04:41:22.401Z,26.77
2019-04-11T04:43:44.344Z,27.17
2019-04-11T04:46:29.876Z,26.83
2019-04-11T04:48:43.350Z,27.63
2019-04-11T04:51:13.593Z,27.73
2019-04-11T04:53:41.121Z,27.60
2019-04-11T04:56:09.162Z,28.57
2019-04-11T04:58:39.830Z,28.17
2019-04-11T05:01:07.856Z,29.30
2019-04-11T05:03:35.766Z,31.30
2019-04-11T05:06:04.215Z,30.60
2019-04-11T05:08:32.563Z,29.60
2019-04-11T05:11:01.808Z,30.70
2019-04-11T05:13:30.258Z,29.83
2019-04-11T05:16:09.883Z,39.33
2019-04-11T05:18:32.184Z,33.20
2019-04-11T05:21:01.018Z,32.37
2019-04-11T05:23:29.784Z,38.93
2019-04-11T05:25:57.673Z,33.10
2019-04-11T05:28:25.509Z,30.87
2019-04-11T05:30:53.264Z,34.03
2019-04-11T05:33:21.235Z,31.97
2019-04-11T05:35:49.981Z,31.70
2019-04-11T05:38:18.867Z,32.80
2019-04-11T05:40:46.746Z,30.90
2019-04-11T05:43:15.515Z,30.40
2019-04-11T05:45:43.238Z,31.40
2019-04-11T05:48:21.939Z,31.20
2019-04-11T05:50:51.637Z,28.20
2019-04-11T05:53:19.889Z,28.90
2019-04-11T05:55:47.959Z,28.33
2019-04-11T05:58:16.135Z,28.63
2019-04-11T06:00:55.638Z,30.53
2019-04-11T06:03:23.909Z,29.50
2019-04-11T06:06:23.017Z,28.07
2019-04-11T06:11:28.507Z,28.80
2019-04-11T06:14:15.656Z,27.03
2019-04-11T06:16:50.302Z,27.67
2019-04-11T06:19:37.717Z,28.23
2019-04-11T06:22:08.581Z,28.47
2019-04-11T06:24:56.530Z,29.17
2019-04-11T06:27:28.787Z,28.90
2019-04-11T06:30:15.989Z,28.87
2019-04-11T06:33:02.528Z,29.40
2019-04-11T06:35:58.689Z,29.63
2019-04-11T06:38:47.138Z,29.33
2019-04-11T06:41:49.234Z,29.30
2019-04-11T06:44:39.783Z,28.07
2019-04-11T06:47:25.544Z,30.40
2019-04-11T06:50:06.905Z,28.80
2019-04-11T06:52:35.004Z,27.93
2019-04-11T06:55:25.029Z,29.07
2019-04-11T06:57:54.333Z,29.30
2019-04-11T07:00:23.087Z,29.93
2019-04-11T07:02:57.056Z,28.57
2019-04-11T07:05:26.737Z,30.20
2019-04-11T07:07:55.703Z,30.37
2019-04-11T07:10:28.622Z,31.10
2019-04-11T07:13:09.880Z,32.97
2019-04-11T07:15:42.648Z,31.70
2019-04-11T07:18:29.117Z,31.83
2019-04-11T07:21:06.328Z,31.63
2019-04-11T07:23:53.374Z,28.13
2019-04-11T07:26:25.106Z,30.70
2019-04-11T07:29:18.005Z,30.70
2019-04-11T07:32:13.795Z,32.13
2019-04-11T07:35:00.043Z,27.70
2019-04-11T07:37:44.753Z,30.87
2019-04-11T07:40:31.418Z,29.23
2019-04-11T07:43:18.974Z,32.30
2019-04-11T07:46:09.309Z,30.87
2019-04-11T07:48:40.207Z,31.07
2019-04-11T07:51:15.568Z,33.40
2019-04-11T07:53:46.482Z,33.50
2019-04-11T07:56:29.496Z,32.27
2019-04-11T07:59:00.834Z,31.47
2019-04-11T08:01:53.603Z,31.93
2019-04-11T08:04:53.313Z,31.63
2019-04-11T08:07:46.859Z,30.77
2019-04-11T08:10:19.193Z,30.27
2019-04-11T08:12:47.961Z,31.27
2019-04-11T08:15:53.721Z,30.10
2019-04-11T08:18:35.040Z,28.00
2019-04-11T08:21:21.801Z,27.03
2019-04-11T08:23:51.983Z,40.83
2019-04-11T08:26:37.988Z,24.80
2019-04-11T08:29:10.588Z,24.97
2019-04-11T08:31:57.676Z,23.30
2019-04-11T08:34:29.098Z,22.63
2019-04-11T08:37:15.695Z,20.27
2019-04-11T08:39:47.182Z,20.90
2019-04-11T08:42:33.747Z,21.77
2019-04-11T08:45:01.550Z,20.80
2019-04-11T08:47:46.042Z,20.03
2019-04-11T08:50:06.197Z,20.93
2019-04-11T08:52:56.190Z,19.27
2019-04-11T08:55:44.643Z,18.90
2019-04-11T08:58:09.485Z,17.73
2019-04-11T09:00:44.789Z,18.37
2019-04-11T09:03:34.629Z,19.43
2019-04-11T09:06:08.311Z,19.37
2019-04-11T09:09:02.785Z,18.43
2019-04-11T09:11:51.238Z,18.40
2019-04-11T09:14:38.448Z,19.77
2019-04-11T09:17:31.630Z,18.93
2019-04-11T09:20:17.365Z,20.60
2019-04-11T09:22:59.527Z,20.23
2019-04-11T09:25:45.759Z,23.97
2019-04-11T09:28:44.089Z,22.30
2019-04-11T09:31:41.481Z,23.30
2019-04-11T09:34:38.607Z,24.33
2019-04-11T09:37:16.799Z,22.97
2019-04-11T09:40:09.943Z,23.03
2019-04-11T09:42:55.692Z,24.83
2019-04-11T09:45:37.897Z,22.27
2019-04-11T09:48:44.290Z,21.80
2019-04-11T09:51:31.627Z,20.13
2019-04-11T09:54:08.566Z,20.20
2019-04-11T09:56:54.519Z,18.87
2019-04-11T09:59:27.561Z,20.20
2019-04-11T10:02:31.006Z,19.07
2019-04-11T10:05:02.599Z,19.57
2019-04-11T10:07:50.913Z,19.77
2019-04-11T10:10:46.205Z,18.93
2019-04-11T10:13:45.031Z,18.77
2019-04-11T10:16:31.784Z,16.60
2019-04-11T10:19:11.599Z,18.80
2019-04-11T10:21:42.094Z,16.63
2019-04-11T10:24:20.969Z,17.33
2019-04-11T10:26:56.311Z,18.57
2019-04-11T10:29:42.066Z,18.50
2019-04-11T10:32:10.742Z,18.63
2019-04-11T10:34:57.983Z,19.77
2019-04-11T10:37:25.785Z,17.57
2019-04-11T10:40:02.055Z,20.90
2019-04-11T10:42:30.670Z,21.53
2019-04-11T10:45:31.019Z,20.13
2019-04-11T10:48:01.228Z,22.10
2019-04-11T10:50:46.775Z,22.60
2019-04-11T10:53:14.963Z,25.03
2019-04-11T10:56:06.383Z,23.73
2019-04-11T10:58:37.898Z,23.63
2019-04-11T11:01:24.966Z,26.20
2019-04-11T11:04:15.793Z,28.27
2019-04-11T11:06:46.476Z,29.03
2019-04-11T11:09:36.778Z,28.20
2019-04-11T11:12:37.120Z,28.50
2019-04-11T11:15:13.912Z,29.57
2019-04-11T11:18:35.148Z,33.10
2019-04-11T11:20:48.896Z,31.70
2019-04-11T11:23:33.086Z,32.23
2019-04-11T11:26:09.056Z,32.03
2019-04-11T11:28:48.848Z,34.40
2019-04-11T11:31:27.996Z,35.33
2019-04-11T11:33:56.607Z,36.30
2019-04-11T11:36:43.738Z,39.03
2019-04-11T11:39:19.325Z,35.17
2019-04-11T11:42:06.187Z,37.63
2019-04-11T11:44:41.213Z,36.40
2019-04-11T11:47:27.840Z,38.73
2019-04-11T11:50:00.600Z,38.10
2019-04-11T11:52:51.094Z,40.17
2019-04-11T11:55:21.843Z,41.50
2019-04-11T11:58:09.077Z,37.73
2019-04-11T12:00:36.829Z,40.73
2019-04-11T12:03:33.059Z,40.57
2019-04-11T12:06:03.599Z,40.37
2019-04-11T12:08:50.896Z,42.37
2019-04-11T12:11:18.792Z,41.20
2019-04-11T12:14:11.741Z,40.23
2019-04-11T12:17:03.313Z,40.20
2019-04-11T12:19:44.667Z,39.97
2019-04-11T12:22:08.443Z,41.40
2019-04-11T12:24:48.700Z,39.70
2019-04-11T12:27:40.024Z,39.67
2019-04-11T12:30:23.425Z,42.47
2019-04-11T12:32:55.053Z,43.17
2019-04-11T12:35:36.002Z,42.57
2019-04-11T12:38:09.299Z,44.83
2019-04-11T12:41:07.231Z,44.03
2019-04-11T12:43:55.694Z,42.50
2019-04-11T12:46:41.348Z,42.33
2019-04-11T12:49:22.965Z,42.83
2019-04-11T12:52:08.844Z,44.77
2019-04-11T12:54:36.637Z,47.47
2019-04-11T12:57:41.867Z,43.57
2019-04-11T13:00:22.906Z,44.80
2019-04-11T13:03:08.672Z,44.73
2019-04-11T13:05:36.714Z,46.43
2019-04-11T13:08:22.373Z,45.77
2019-04-11T13:10:50.101Z,45.87
2019-04-11T13:13:32.555Z,45.27
2019-04-11T13:16:12.441Z,44.63
2019-04-11T13:18:56.829Z,45.70
2019-04-11T13:21:31.843Z,44.33
2019-04-11T13:24:18.418Z,43.73
2019-04-11T13:27:14.593Z,44.47
2019-04-11T13:30:04.529Z,43.43
2019-04-11T13:32:40.173Z,42.40
2019-04-11T13:35:18.547Z,44.90
2019-04-11T13:38:04.582Z,46.40
2019-04-11T13:40:51.803Z,45.53
2019-04-11T13:43:30.618Z,42.00
2019-04-11T13:46:10.582Z,44.83
2019-04-11T13:49:06.590Z,44.57
2019-04-11T13:51:58.441Z,47.03
2019-04-11T13:54:54.195Z,45.53
2019-04-11T13:57:56.589Z,49.07
2019-04-11T14:00:38.548Z,43.20
2019-04-11T14:03:28.541Z,49.63
2019-04-11T14:05:58.678Z,50.43
2019-04-11T14:08:32.578Z,48.37
2019-04-11T14:11:08.933Z,47.97
2019-04-11T14:13:43.084Z,50.80
2019-04-11T14:16:16.153Z,50.27
2019-04-11T14:19:01.759Z,50.67
2019-04-11T14:21:29.530Z,49.20
2019-04-11T14:24:22.514Z,50.57
2019-04-11T14:26:51.821Z,48.03
2019-04-11T14:29:26.703Z,48.17
2019-04-11T14:32:13.337Z,47.77
2019-04-11T14:35:09.428Z,48.60
2019-04-11T14:37:49.761Z,48.43
2019-04-11T14:40:42.055Z,49.13
2019-04-11T14:43:26.577Z,48.77
2019-04-11T14:46:13.743Z,48.13
2019-04-11T14:48:49.699Z,49.30
2019-04-11T14:51:36.873Z,46.50
2019-04-11T14:54:11.832Z,50.90
2019-04-11T14:56:44.768Z,47.93
2019-04-11T14:59:36.240Z,48.77
2019-04-11T15:02:08.521Z,45.60
2019-04-11T15:05:06.150Z,46.07
2019-04-11T15:07:35.289Z,48.13
2019-04-11T15:10:21.289Z,43.03
2019-04-11T15:12:49.045Z,40.10
2019-04-11T15:15:27.321Z,42.80
2019-04-11T15:17:59.732Z,40.90
2019-04-11T15:20:54.893Z,41.67
2019-04-11T15:23:20.035Z,38.00
2019-04-11T15:26:08.110Z,38.07
2019-04-11T15:28:55.308Z,40.27
2019-04-11T15:31:38.803Z,43.77
2019-04-11T15:34:17.183Z,46.83
2019-04-11T15:36:57.998Z,46.17
2019-04-11T15:39:51.413Z,50.20
2019-04-11T15:42:29.393Z,49.13
2019-04-11T15:45:31.741Z,50.97
2019-04-11T15:48:20.152Z,49.23
2019-04-11T15:51:06.685Z,47.43
2019-04-11T15:53:50.958Z,48.57
2019-04-11T15:56:40.890Z,48.90
2019-04-11T15:59:20.379Z,47.73
2019-04-11T16:02:10.542Z,50.93
2019-04-11T16:04:54.794Z,45.67
2019-04-11T16:07:47.998Z,46.37
2019-04-11T16:10:15.764Z,48.03
2019-04-11T16:12:51.573Z,48.87
2019-04-11T16:15:19.314Z,49.23
2019-04-11T16:18:04.841Z,45.27
2019-04-11T16:20:32.614Z,46.37
2019-04-11T16:23:26.956Z,45.70
2019-04-11T16:25:54.853Z,47.33
2019-04-11T16:28:41.994Z,46.20
2019-04-11T16:31:11.586Z,47.37
2019-04-11T16:34:01.275Z,46.03
2019-04-11T16:36:35.303Z,46.17
2019-04-11T16:39:26.761Z,44.73
2019-04-11T16:42:10.770Z,38.40
2019-04-11T16:44:57.941Z,32.70
2019-04-11T16:47:43.762Z,33.87
2019-04-11T16:50:11.473Z,30.70
2019-04-11T16:52:39.329Z,30.43
2019-04-11T16:55:09.821Z,30.13
2019-04-11T16:57:36.883Z,29.93
2019-04-11T17:00:08.941Z,29.77
2019-04-11T17:02:36.215Z,30.53
2019-04-11T17:05:05.499Z,28.73
2019-04-11T17:07:44.869Z,31.10
2019-04-11T17:10:13.108Z,31.63
2019-04-11T17:12:40.836Z,33.33
2019-04-11T17:15:08.578Z,35.33
2019-04-11T17:17:36.289Z,35.57
2019-04-11T17:20:06.446Z,39.50
2019-04-11T17:22:33.954Z,40.87
2019-04-11T17:25:01.783Z,41.30
2019-04-11T17:27:32.906Z,40.03
2019-04-11T17:30:00.661Z,40.33
2019-04-11T17:32:28.376Z,39.87
2019-04-11T17:34:56.111Z,38.67
2019-04-11T17:37:23.825Z,37.50
2019-04-11T17:39:51.637Z,37.97
2019-04-11T17:42:19.275Z,50.27
2019-04-11T17:44:47.185Z,35.97
2019-04-11T17:47:14.981Z,35.83
2019-04-11T17:49:42.615Z,33.63
2019-04-11T17:52:10.354Z,32.53
2019-04-11T17:54:39.109Z,31.83
2019-04-11T17:57:06.757Z,33.10
2019-04-11T17:59:34.473Z,32.40
2019-04-11T18:02:02.747Z,33.37
2019-04-11T18:04:30.477Z,33.00
2019-04-11T18:06:58.225Z,31.97
2019-04-11T18:09:26.464Z,34.73
2019-04-11T18:11:56.142Z,30.27
2019-04-11T18:14:23.695Z,32.40
2019-04-11T18:16:51.538Z,30.93
2019-04-11T18:19:19.241Z,31.80
2019-04-11T18:21:46.957Z,31.67
2019-04-11T18:24:14.678Z,32.17
2019-04-11T18:26:42.406Z,32.23
2019-04-11T18:29:10.150Z,31.47
2019-04-11T18:31:37.892Z,33.30
2019-04-11T18:34:05.609Z,34.83
2019-04-11T18:36:33.360Z,33.97
2019-04-11T18:39:04.211Z,35.57
2019-04-11T18:41:30.678Z,33.97
2019-04-11T18:43:58.385Z,37.03
2019-04-11T18:46:26.125Z,37.80
2019-04-11T18:48:54.577Z,39.07
2019-04-11T18:51:23.233Z,38.67
2019-04-11T18:53:51.422Z,38.37
2019-04-11T18:56:19.161Z,39.03
2019-04-11T18:58:46.956Z,40.00
2019-04-11T19:01:14.801Z,39.53
2019-04-11T19:03:42.649Z,42.20
2019-04-11T19:06:12.907Z,41.27
2019-04-11T19:08:43.159Z,43.37
2019-04-11T19:11:09.611Z,45.43
2019-04-11T19:13:37.365Z,46.10
2019-04-11T19:16:05.086Z,46.20
2019-04-11T19:18:32.849Z,44.53
2019-04-11T19:21:00.569Z,46.63
2019-04-11T19:23:28.293Z,47.40
2019-04-11T19:25:56.081Z,49.03
2019-04-11T19:28:25.206Z,46.70
2019-04-11T19:30:54.029Z,48.10
2019-04-11T19:33:22.885Z,47.93
2019-04-11T19:35:50.597Z,49.37
2019-04-11T19:38:36.690Z,47.83
2019-04-11T19:41:04.422Z,48.67
2019-04-11T19:43:32.160Z,53.50
2019-04-11T19:45:59.878Z,52.40
2019-04-11T19:48:27.609Z,52.67
2019-04-11T19:50:58.630Z,51.33
2019-04-11T19:53:24.886Z,51.57
2019-04-11T19:56:00.502Z,56.23
2019-04-11T19:58:28.974Z,52.80
2019-04-11T20:00:56.713Z,56.30
2019-04-11T20:03:24.770Z,55.17
2019-04-11T20:05:52.712Z,55.93
2019-04-11T20:08:20.457Z,55.57
2019-04-11T20:10:48.173Z,56.07
2019-04-11T20:13:15.925Z,57.50
2019-04-11T20:15:43.645Z,55.70
2019-04-11T20:18:11.408Z,56.73
2019-04-11T20:20:39.161Z,58.17
2019-04-11T20:23:10.520Z,58.57
2019-04-11T20:25:36.429Z,59.40
2019-04-11T20:28:04.146Z,56.60
2019-04-11T20:30:31.909Z,58.23
2019-04-11T20:33:02.889Z,57.23
2019-04-11T20:35:29.471Z,58.83
2019-04-11T20:37:57.233Z,56.47
2019-04-11T20:40:25.002Z,57.27
2019-04-11T20:42:54.423Z,55.40
2019-04-11T20:45:23.870Z,60.20
2019-04-11T20:47:51.597Z,60.27
2019-04-11T20:50:19.329Z,56.87
2019-04-11T20:52:47.029Z,58.03
2019-04-11T20:55:14.783Z,56.97
2019-04-11T20:57:42.514Z,58.87
2019-04-11T21:00:12.321Z,57.47
2019-04-11T21:02:39.782Z,58.10
2019-04-11T21:05:07.513Z,59.07
2019-04-11T21:07:35.221Z,60.33
2019-04-11T21:10:03.964Z,60.40
2019-04-11T21:12:32.432Z,56.27
2019-04-11T21:15:00.163Z,58.97
2019-04-11T21:17:27.890Z,59.50
2019-04-11T21:19:55.618Z,58.70
2019-04-11T21:22:24.298Z,61.30
2019-04-11T21:24:52.481Z,59.90
2019-04-11T21:27:20.200Z,58.43
2019-04-11T21:29:47.933Z,59.30
2019-04-11T21:32:15.748Z,60.10
2019-04-11T21:34:43.698Z,58.43
2019-04-11T21:37:11.441Z,58.43
2019-04-11T21:39:39.219Z,59.77
2019-04-11T21:42:06.923Z,59.70
2019-04-11T21:44:36.738Z,61.00
2019-04-11T21:47:04.382Z,58.53
2019-04-11T21:49:36.645Z,61.17
2019-04-11T21:52:03.154Z,57.97
2019-04-11T21:54:31.052Z,57.33
2019-04-11T21:56:58.803Z,57.67
2019-04-11T21:59:26.541Z,57.47
2019-04-11T22:01:54.758Z,60.43
2019-04-11T22:04:26.827Z,60.73
2019-04-11T22:06:52.180Z,59.17
2019-04-11T22:09:19.793Z,59.47
2019-04-11T22:11:47.526Z,60.57
2019-04-11T22:14:15.253Z,59.47
2019-04-11T22:16:45.147Z,57.07
2019-04-11T22:19:14.265Z,58.30
2019-04-11T22:21:45.062Z,57.77
2019-04-11T22:24:11.977Z,56.93
2019-04-11T22:26:39.717Z,58.33
2019-04-11T22:29:07.437Z,55.53
2019-04-11T22:31:35.171Z,57.00
2019-04-11T22:34:11.147Z,54.37
2019-04-11T22:36:38.869Z,53.57
2019-04-11T22:39:07.530Z,56.67
2019-04-11T22:41:54.645Z,53.43
2019-04-11T22:44:22.429Z,55.27
2019-04-11T22:46:50.175Z,57.10
2019-04-11T22:49:17.888Z,54.27
2019-04-11T22:51:45.625Z,55.43
2019-04-11T22:54:13.808Z,56.07
2019-04-11T22:56:41.865Z,55.60
2019-04-11T22:59:13.673Z,54.67
2019-04-11T23:01:39.581Z,53.10
2019-04-11T23:04:07.273Z,54.10
2019-04-11T23:06:34.993Z,53.40
2019-04-11T23:09:04.749Z,51.70
2019-04-11T23:11:32.461Z,49.73
2019-04-11T23:14:00.194Z,46.57
2019-04-11T23:16:27.906Z,46.33
2019-04-11T23:18:55.626Z,44.30
2019-04-11T23:21:23.345Z,42.50
2019-04-11T23:23:51.079Z,43.87
2019-04-11T23:26:18.784Z,41.10
2019-04-11T23:28:46.953Z,41.67
2019-04-11T23:31:15.472Z,41.10
2019-04-11T23:33:43.196Z,40.83
2019-04-11T23:36:10.912Z,41.60
2019-04-11T23:38:38.634Z,40.03
2019-04-11T23:41:06.340Z,39.00
2019-04-11T23:43:34.082Z,37.63
2019-04-11T23:46:01.840Z,36.23
2019-04-11T23:48:29.578Z,39.87
2019-04-11T23:50:57.277Z,36.93
2019-04-11T23:53:28.125Z,37.37
2019-04-11T23:55:54.516Z,38.50
2019-04-11T23:58:22.249Z,38.77
